sensor_id;sensor_type;location;lat;lon;timestamp;pressure;altitude;pressure_sealevel;temperature
19282;BMP180;9774;52.034;5.342;2023-04-15T00:00:37;100686.00;;;14.90
19282;BMP180;9774;52.034;5.342;2023-04-15T00:03:05;100681.00;;;14.80
19282;BMP180;9774;52.034;5.342;2023-04-15T00:05:33;100688.00;;;14.80
19282;BMP180;9774;52.034;5.342;2023-04-15T00:08:01;100692.00;;;14.80
19282;BMP180;9774;52.034;5.342;2023-04-15T00:10:28;100690.00;;;14.80
19282;BMP180;9774;52.034;5.342;2023-04-15T00:12:55;100690.00;;;14.80
19282;BMP180;9774;52.034;5.342;2023-04-15T00:15:24;100692.00;;;14.80
19282;BMP180;9774;52.034;5.342;2023-04-15T00:17:52;100688.00;;;14.80
19282;BMP180;9774;52.034;5.342;2023-04-15T00:20:19;100687.00;;;14.80
19282;BMP180;9774;52.034;5.342;2023-04-15T00:22:47;100684.00;;;14.80
19282;BMP180;9774;52.034;5.342;2023-04-15T00:25:14;100690.00;;;14.70
19282;BMP180;9774;52.034;5.342;2023-04-15T00:27:41;100677.00;;;14.70
19282;BMP180;9774;52.034;5.342;2023-04-15T00:30:09;100682.00;;;14.70
19282;BMP180;9774;52.034;5.342;2023-04-15T00:32:38;100686.00;;;14.70
19282;BMP180;9774;52.034;5.342;2023-04-15T00:35:07;100683.00;;;14.70
19282;BMP180;9774;52.034;5.342;2023-04-15T00:37:35;100681.00;;;14.60
19282;BMP180;9774;52.034;5.342;2023-04-15T00:40:02;100686.00;;;14.60
19282;BMP180;9774;52.034;5.342;2023-04-15T00:42:31;100682.00;;;14.60
19282;BMP180;9774;52.034;5.342;2023-04-15T00:44:59;100680.00;;;14.60
19282;BMP180;9774;52.034;5.342;2023-04-15T00:47:28;100686.00;;;14.50
19282;BMP180;9774;52.034;5.342;2023-04-15T00:49:57;100691.00;;;14.50
19282;BMP180;9774;52.034;5.342;2023-04-15T00:52:25;100693.00;;;14.50
19282;BMP180;9774;52.034;5.342;2023-04-15T00:54:52;100687.00;;;14.40
19282;BMP180;9774;52.034;5.342;2023-04-15T00:57:20;100690.00;;;14.40
19282;BMP180;9774;52.034;5.342;2023-04-15T00:59:48;100695.00;;;14.40
19282;BMP180;9774;52.034;5.342;2023-04-15T01:02:17;100693.00;;;14.30
19282;BMP180;9774;52.034;5.342;2023-04-15T01:04:45;100690.00;;;14.30
19282;BMP180;9774;52.034;5.342;2023-04-15T01:07:14;100696.00;;;14.30
19282;BMP180;9774;52.034;5.342;2023-04-15T01:09:41;100689.00;;;14.20
19282;BMP180;9774;52.034;5.342;2023-04-15T01:12:10;100689.00;;;14.20
19282;BMP180;9774;52.034;5.342;2023-04-15T01:14:39;100689.00;;;14.20
19282;BMP180;9774;52.034;5.342;2023-04-15T01:17:06;100691.00;;;14.10
19282;BMP180;9774;52.034;5.342;2023-04-15T01:19:34;100687.00;;;14.10
19282;BMP180;9774;52.034;5.342;2023-04-15T01:22:02;100686.00;;;14.10
19282;BMP180;9774;52.034;5.342;2023-04-15T01:24:32;100688.00;;;14.10
19282;BMP180;9774;52.034;5.342;2023-04-15T01:27:01;100684.00;;;14.00
19282;BMP180;9774;52.034;5.342;2023-04-15T01:29:30;100690.00;;;14.00
19282;BMP180;9774;52.034;5.342;2023-04-15T01:31:58;100684.00;;;14.00
19282;BMP180;9774;52.034;5.342;2023-04-15T01:34:25;100684.00;;;13.90
19282;BMP180;9774;52.034;5.342;2023-04-15T01:36:52;100682.00;;;13.90
19282;BMP180;9774;52.034;5.342;2023-04-15T01:39:20;100686.00;;;13.90
19282;BMP180;9774;52.034;5.342;2023-04-15T01:41:48;100679.00;;;13.80
19282;BMP180;9774;52.034;5.342;2023-04-15T01:44:16;100688.00;;;13.80
19282;BMP180;9774;52.034;5.342;2023-04-15T01:46:44;100686.00;;;13.80
19282;BMP180;9774;52.034;5.342;2023-04-15T01:49:11;100686.00;;;13.80
19282;BMP180;9774;52.034;5.342;2023-04-15T01:51:38;100691.00;;;13.70
19282;BMP180;9774;52.034;5.342;2023-04-15T01:54:06;100696.00;;;13.70
19282;BMP180;9774;52.034;5.342;2023-04-15T01:56:33;100689.00;;;13.70
19282;BMP180;9774;52.034;5.342;2023-04-15T01:59:00;100696.00;;;13.70
19282;BMP180;9774;52.034;5.342;2023-04-15T02:01:30;100701.00;;;13.60
19282;BMP180;9774;52.034;5.342;2023-04-15T02:03:57;100695.00;;;13.60
19282;BMP180;9774;52.034;5.342;2023-04-15T02:06:24;100692.00;;;13.60
19282;BMP180;9774;52.034;5.342;2023-04-15T02:08:53;100693.00;;;13.60
19282;BMP180;9774;52.034;5.342;2023-04-15T02:11:20;100688.00;;;13.60
19282;BMP180;9774;52.034;5.342;2023-04-15T02:13:48;100703.00;;;13.60
19282;BMP180;9774;52.034;5.342;2023-04-15T02:16:15;100700.00;;;13.50
19282;BMP180;9774;52.034;5.342;2023-04-15T02:18:45;100701.00;;;13.50
19282;BMP180;9774;52.034;5.342;2023-04-15T02:21:13;100697.00;;;13.50
19282;BMP180;9774;52.034;5.342;2023-04-15T02:23:40;100702.00;;;13.50
19282;BMP180;9774;52.034;5.342;2023-04-15T02:26:08;100709.00;;;13.50
19282;BMP180;9774;52.034;5.342;2023-04-15T02:28:36;100700.00;;;13.40
19282;BMP180;9774;52.034;5.342;2023-04-15T02:31:05;100712.00;;;13.40
19282;BMP180;9774;52.034;5.342;2023-04-15T02:33:33;100705.00;;;13.40
19282;BMP180;9774;52.034;5.342;2023-04-15T02:36:02;100708.00;;;13.40
19282;BMP180;9774;52.034;5.342;2023-04-15T02:38:29;100718.00;;;13.30
19282;BMP180;9774;52.034;5.342;2023-04-15T02:40:57;100727.00;;;13.30
19282;BMP180;9774;52.034;5.342;2023-04-15T02:43:24;100721.00;;;13.30
19282;BMP180;9774;52.034;5.342;2023-04-15T02:45:51;100720.00;;;13.20
19282;BMP180;9774;52.034;5.342;2023-04-15T02:48:19;100713.00;;;13.20
19282;BMP180;9774;52.034;5.342;2023-04-15T02:50:49;100727.00;;;13.20
19282;BMP180;9774;52.034;5.342;2023-04-15T02:53:17;100727.00;;;13.20
19282;BMP180;9774;52.034;5.342;2023-04-15T02:55:46;100725.00;;;13.10
19282;BMP180;9774;52.034;5.342;2023-04-15T02:58:13;100736.00;;;13.10
19282;BMP180;9774;52.034;5.342;2023-04-15T03:00:40;100734.00;;;13.10
19282;BMP180;9774;52.034;5.342;2023-04-15T03:03:08;100740.00;;;13.10
19282;BMP180;9774;52.034;5.342;2023-04-15T03:05:35;100736.00;;;13.10
19282;BMP180;9774;52.034;5.342;2023-04-15T03:08:04;100737.00;;;13.00
19282;BMP180;9774;52.034;5.342;2023-04-15T03:10:33;100736.00;;;13.00
19282;BMP180;9774;52.034;5.342;2023-04-15T03:13:00;100737.00;;;13.00
19282;BMP180;9774;52.034;5.342;2023-04-15T03:15:28;100741.00;;;13.00
19282;BMP180;9774;52.034;5.342;2023-04-15T03:17:55;100741.00;;;12.90
19282;BMP180;9774;52.034;5.342;2023-04-15T03:20:23;100742.00;;;12.90
19282;BMP180;9774;52.034;5.342;2023-04-15T03:22:50;100747.00;;;12.90
19282;BMP180;9774;52.034;5.342;2023-04-15T03:25:17;100748.00;;;12.90
19282;BMP180;9774;52.034;5.342;2023-04-15T03:27:46;100741.00;;;12.80
19282;BMP180;9774;52.034;5.342;2023-04-15T03:30:13;100746.00;;;12.80
19282;BMP180;9774;52.034;5.342;2023-04-15T03:32:41;100753.00;;;12.80
19282;BMP180;9774;52.034;5.342;2023-04-15T03:35:09;100750.00;;;12.80
19282;BMP180;9774;52.034;5.342;2023-04-15T03:37:36;100748.00;;;12.80
19282;BMP180;9774;52.034;5.342;2023-04-15T03:40:04;100746.00;;;12.70
19282;BMP180;9774;52.034;5.342;2023-04-15T03:42:31;100754.00;;;12.70
19282;BMP180;9774;52.034;5.342;2023-04-15T03:45:00;100760.00;;;12.70
19282;BMP180;9774;52.034;5.342;2023-04-15T03:47:27;100755.00;;;12.70
19282;BMP180;9774;52.034;5.342;2023-04-15T03:49:54;100762.00;;;12.60
19282;BMP180;9774;52.034;5.342;2023-04-15T03:52:22;100763.00;;;12.60
19282;BMP180;9774;52.034;5.342;2023-04-15T03:54:49;100774.00;;;12.60
19282;BMP180;9774;52.034;5.342;2023-04-15T03:57:16;100779.00;;;12.60
19282;BMP180;9774;52.034;5.342;2023-04-15T03:59:43;100783.00;;;12.60
19282;BMP180;9774;52.034;5.342;2023-04-15T04:02:12;100776.00;;;12.60
19282;BMP180;9774;52.034;5.342;2023-04-15T04:04:39;100778.00;;;12.60
19282;BMP180;9774;52.034;5.342;2023-04-15T04:07:07;100781.00;;;12.50
19282;BMP180;9774;52.034;5.342;2023-04-15T04:09:34;100790.00;;;12.60
19282;BMP180;9774;52.034;5.342;2023-04-15T04:12:04;100791.00;;;12.50
19282;BMP180;9774;52.034;5.342;2023-04-15T04:14:31;100789.00;;;12.50
19282;BMP180;9774;52.034;5.342;2023-04-15T04:16:58;100793.00;;;12.50
19282;BMP180;9774;52.034;5.342;2023-04-15T04:19:27;100797.00;;;12.50
19282;BMP180;9774;52.034;5.342;2023-04-15T04:21:55;100801.00;;;12.50
19282;BMP180;9774;52.034;5.342;2023-04-15T04:24:22;100801.00;;;12.50
19282;BMP180;9774;52.034;5.342;2023-04-15T04:26:49;100800.00;;;12.40
19282;BMP180;9774;52.034;5.342;2023-04-15T04:29:17;100806.00;;;12.40
19282;BMP180;9774;52.034;5.342;2023-04-15T04:31:44;100804.00;;;12.40
19282;BMP180;9774;52.034;5.342;2023-04-15T04:34:13;100816.00;;;12.40
19282;BMP180;9774;52.034;5.342;2023-04-15T04:36:42;100815.00;;;12.40
19282;BMP180;9774;52.034;5.342;2023-04-15T04:39:09;100815.00;;;12.40
19282;BMP180;9774;52.034;5.342;2023-04-15T04:41:36;100815.00;;;12.40
19282;BMP180;9774;52.034;5.342;2023-04-15T04:44:04;100825.00;;;12.40
19282;BMP180;9774;52.034;5.342;2023-04-15T04:46:31;100824.00;;;12.30
19282;BMP180;9774;52.034;5.342;2023-04-15T04:48:58;100831.00;;;12.30
19282;BMP180;9774;52.034;5.342;2023-04-15T04:51:26;100839.00;;;12.30
19282;BMP180;9774;52.034;5.342;2023-04-15T04:53:55;100838.00;;;12.30
19282;BMP180;9774;52.034;5.342;2023-04-15T04:56:22;100844.00;;;12.30
19282;BMP180;9774;52.034;5.342;2023-04-15T04:58:49;100846.00;;;12.30
19282;BMP180;9774;52.034;5.342;2023-04-15T05:01:17;100848.00;;;12.30
19282;BMP180;9774;52.034;5.342;2023-04-15T05:03:44;100852.00;;;12.30
19282;BMP180;9774;52.034;5.342;2023-04-15T05:06:11;100853.00;;;12.30
19282;BMP180;9774;52.034;5.342;2023-04-15T05:08:39;100858.00;;;12.30
19282;BMP180;9774;52.034;5.342;2023-04-15T05:11:08;100865.00;;;12.30
19282;BMP180;9774;52.034;5.342;2023-04-15T05:13:35;100868.00;;;12.30
19282;BMP180;9774;52.034;5.342;2023-04-15T05:16:04;100870.00;;;12.30
19282;BMP180;9774;52.034;5.342;2023-04-15T05:18:31;100869.00;;;12.30
19282;BMP180;9774;52.034;5.342;2023-04-15T05:20:59;100880.00;;;12.30
19282;BMP180;9774;52.034;5.342;2023-04-15T05:23:27;100883.00;;;12.30
19282;BMP180;9774;52.034;5.342;2023-04-15T05:25:54;100882.00;;;12.30
19282;BMP180;9774;52.034;5.342;2023-04-15T05:28:23;100896.00;;;12.30
19282;BMP180;9774;52.034;5.342;2023-04-15T05:30:51;100892.00;;;12.30
19282;BMP180;9774;52.034;5.342;2023-04-15T05:33:18;100904.00;;;12.40
19282;BMP180;9774;52.034;5.342;2023-04-15T05:35:45;100903.00;;;12.40
19282;BMP180;9774;52.034;5.342;2023-04-15T05:38:12;100912.00;;;12.40
19282;BMP180;9774;52.034;5.342;2023-04-15T05:40:40;100910.00;;;12.30
19282;BMP180;9774;52.034;5.342;2023-04-15T05:43:08;100917.00;;;12.30
19282;BMP180;9774;52.034;5.342;2023-04-15T05:45:38;100914.00;;;12.30
19282;BMP180;9774;52.034;5.342;2023-04-15T05:48:06;100916.00;;;12.30
19282;BMP180;9774;52.034;5.342;2023-04-15T05:50:33;100916.00;;;12.30
19282;BMP180;9774;52.034;5.342;2023-04-15T05:53:01;100927.00;;;12.30
19282;BMP180;9774;52.034;5.342;2023-04-15T05:55:28;100928.00;;;12.30
19282;BMP180;9774;52.034;5.342;2023-04-15T05:57:59;100940.00;;;12.30
19282;BMP180;9774;52.034;5.342;2023-04-15T06:00:28;100942.00;;;12.30
19282;BMP180;9774;52.034;5.342;2023-04-15T06:02:57;100947.00;;;12.30
19282;BMP180;9774;52.034;5.342;2023-04-15T06:05:25;100947.00;;;12.30
19282;BMP180;9774;52.034;5.342;2023-04-15T06:07:52;100958.00;;;12.30
19282;BMP180;9774;52.034;5.342;2023-04-15T06:10:20;100957.00;;;12.30
19282;BMP180;9774;52.034;5.342;2023-04-15T06:12:55;100970.00;;;12.20
19282;BMP180;9774;52.034;5.342;2023-04-15T06:15:22;100968.00;;;12.30
19282;BMP180;9774;52.034;5.342;2023-04-15T06:17:50;100966.00;;;12.30
19282;BMP180;9774;52.034;5.342;2023-04-15T06:20:19;100973.00;;;12.30
19282;BMP180;9774;52.034;5.342;2023-04-15T06:22:46;100977.00;;;12.30
19282;BMP180;9774;52.034;5.342;2023-04-15T06:25:13;100982.00;;;12.30
19282;BMP180;9774;52.034;5.342;2023-04-15T06:27:41;100989.00;;;12.40
19282;BMP180;9774;52.034;5.342;2023-04-15T06:30:09;100984.00;;;12.40
19282;BMP180;9774;52.034;5.342;2023-04-15T06:32:37;100993.00;;;12.40
19282;BMP180;9774;52.034;5.342;2023-04-15T06:35:05;100991.00;;;12.50
19282;BMP180;9774;52.034;5.342;2023-04-15T06:37:34;100999.00;;;12.50
19282;BMP180;9774;52.034;5.342;2023-04-15T06:40:02;100999.00;;;12.60
19282;BMP180;9774;52.034;5.342;2023-04-15T06:42:30;101007.00;;;12.60
19282;BMP180;9774;52.034;5.342;2023-04-15T06:44:58;101012.00;;;12.70
19282;BMP180;9774;52.034;5.342;2023-04-15T06:47:25;101015.00;;;12.70
19282;BMP180;9774;52.034;5.342;2023-04-15T06:49:52;101026.00;;;12.80
19282;BMP180;9774;52.034;5.342;2023-04-15T06:52:20;101018.00;;;12.80
19282;BMP180;9774;52.034;5.342;2023-04-15T06:54:49;101032.00;;;12.90
19282;BMP180;9774;52.034;5.342;2023-04-15T06:57:17;101037.00;;;13.00
19282;BMP180;9774;52.034;5.342;2023-04-15T06:59:45;101041.00;;;13.00
19282;BMP180;9774;52.034;5.342;2023-04-15T07:02:13;101041.00;;;13.10
19282;BMP180;9774;52.034;5.342;2023-04-15T07:04:40;101048.00;;;13.20
19282;BMP180;9774;52.034;5.342;2023-04-15T07:07:08;101054.00;;;13.20
19282;BMP180;9774;52.034;5.342;2023-04-15T07:09:35;101053.00;;;13.30
19282;BMP180;9774;52.034;5.342;2023-04-15T07:12:04;101059.00;;;13.30
19282;BMP180;9774;52.034;5.342;2023-04-15T07:14:32;101073.00;;;13.40
19282;BMP180;9774;52.034;5.342;2023-04-15T07:16:59;101068.00;;;13.50
19282;BMP180;9774;52.034;5.342;2023-04-15T07:19:27;101070.00;;;13.50
19282;BMP180;9774;52.034;5.342;2023-04-15T07:21:55;101082.00;;;13.60
19282;BMP180;9774;52.034;5.342;2023-04-15T07:24:22;101076.00;;;13.70
19282;BMP180;9774;52.034;5.342;2023-04-15T07:26:52;101079.00;;;13.80
19282;BMP180;9774;52.034;5.342;2023-04-15T07:29:21;101092.00;;;13.90
19282;BMP180;9774;52.034;5.342;2023-04-15T07:31:48;101085.00;;;14.00
19282;BMP180;9774;52.034;5.342;2023-04-15T07:34:15;101090.00;;;14.10
19282;BMP180;9774;52.034;5.342;2023-04-15T07:36:43;101099.00;;;14.30
19282;BMP180;9774;52.034;5.342;2023-04-15T07:39:11;101095.00;;;14.40
19282;BMP180;9774;52.034;5.342;2023-04-15T07:41:38;101104.00;;;14.50
19282;BMP180;9774;52.034;5.342;2023-04-15T07:44:05;101107.00;;;14.60
19282;BMP180;9774;52.034;5.342;2023-04-15T07:46:34;101108.00;;;14.70
19282;BMP180;9774;52.034;5.342;2023-04-15T07:49:02;101107.00;;;14.90
19282;BMP180;9774;52.034;5.342;2023-04-15T07:51:29;101112.00;;;15.00
19282;BMP180;9774;52.034;5.342;2023-04-15T07:53:57;101116.00;;;15.10
19282;BMP180;9774;52.034;5.342;2023-04-15T07:56:25;101110.00;;;15.20
19282;BMP180;9774;52.034;5.342;2023-04-15T07:58:52;101122.00;;;15.40
19282;BMP180;9774;52.034;5.342;2023-04-15T08:01:20;101123.00;;;15.50
19282;BMP180;9774;52.034;5.342;2023-04-15T08:03:49;101128.00;;;15.60
19282;BMP180;9774;52.034;5.342;2023-04-15T08:06:17;101130.00;;;15.70
19282;BMP180;9774;52.034;5.342;2023-04-15T08:08:44;101127.00;;;15.70
19282;BMP180;9774;52.034;5.342;2023-04-15T08:11:12;101132.00;;;15.90
19282;BMP180;9774;52.034;5.342;2023-04-15T08:13:39;101130.00;;;16.00
19282;BMP180;9774;52.034;5.342;2023-04-15T08:16:18;101134.00;;;16.00
19282;BMP180;9774;52.034;5.342;2023-04-15T08:18:45;101150.00;;;16.10
19282;BMP180;9774;52.034;5.342;2023-04-15T08:21:14;101153.00;;;16.20
19282;BMP180;9774;52.034;5.342;2023-04-15T08:23:44;101152.00;;;16.20
19282;BMP180;9774;52.034;5.342;2023-04-15T08:26:11;101159.00;;;16.30
19282;BMP180;9774;52.034;5.342;2023-04-15T08:28:40;101153.00;;;16.40
19282;BMP180;9774;52.034;5.342;2023-04-15T08:31:07;101160.00;;;16.50
19282;BMP180;9774;52.034;5.342;2023-04-15T08:33:35;101159.00;;;16.50
19282;BMP180;9774;52.034;5.342;2023-04-15T08:36:02;101166.00;;;16.60
19282;BMP180;9774;52.034;5.342;2023-04-15T08:38:32;101165.00;;;16.60
19282;BMP180;9774;52.034;5.342;2023-04-15T08:41:02;101169.00;;;16.70
19282;BMP180;9774;52.034;5.342;2023-04-15T08:43:35;101176.00;;;16.70
19282;BMP180;9774;52.034;5.342;2023-04-15T08:46:09;101187.00;;;16.80
19282;BMP180;9774;52.034;5.342;2023-04-15T08:48:38;101182.00;;;16.90
19282;BMP180;9774;52.034;5.342;2023-04-15T08:51:06;101186.00;;;17.00
19282;BMP180;9774;52.034;5.342;2023-04-15T08:53:36;101187.00;;;17.00
19282;BMP180;9774;52.034;5.342;2023-04-15T08:56:06;101198.00;;;17.00
19282;BMP180;9774;52.034;5.342;2023-04-15T08:58:35;101207.00;;;17.10
19282;BMP180;9774;52.034;5.342;2023-04-15T09:01:03;101206.00;;;17.10
19282;BMP180;9774;52.034;5.342;2023-04-15T09:03:31;101211.00;;;17.20
19282;BMP180;9774;52.034;5.342;2023-04-15T09:05:59;101224.00;;;17.30
19282;BMP180;9774;52.034;5.342;2023-04-15T09:08:26;101233.00;;;17.30
19282;BMP180;9774;52.034;5.342;2023-04-15T09:10:55;101223.00;;;17.40
19282;BMP180;9774;52.034;5.342;2023-04-15T09:13:22;101238.00;;;17.40
19282;BMP180;9774;52.034;5.342;2023-04-15T09:15:50;101245.00;;;17.50
19282;BMP180;9774;52.034;5.342;2023-04-15T09:18:27;101247.00;;;17.40
19282;BMP180;9774;52.034;5.342;2023-04-15T09:20:55;101248.00;;;17.50
19282;BMP180;9774;52.034;5.342;2023-04-15T09:23:24;101247.00;;;17.50
19282;BMP180;9774;52.034;5.342;2023-04-15T09:25:52;101244.00;;;17.60
19282;BMP180;9774;52.034;5.342;2023-04-15T09:28:25;101242.00;;;17.60
19282;BMP180;9774;52.034;5.342;2023-04-15T09:30:55;101251.00;;;17.70
19282;BMP180;9774;52.034;5.342;2023-04-15T09:33:23;101252.00;;;17.80
19282;BMP180;9774;52.034;5.342;2023-04-15T09:35:59;101258.00;;;17.80
19282;BMP180;9774;52.034;5.342;2023-04-15T09:38:27;101258.00;;;18.00
19282;BMP180;9774;52.034;5.342;2023-04-15T09:40:55;101261.00;;;18.10
19282;BMP180;9774;52.034;5.342;2023-04-15T09:43:36;101266.00;;;18.10
19282;BMP180;9774;52.034;5.342;2023-04-15T09:46:05;101269.00;;;18.30
19282;BMP180;9774;52.034;5.342;2023-04-15T09:48:32;101269.00;;;18.40
19282;BMP180;9774;52.034;5.342;2023-04-15T09:51:00;101278.00;;;18.50
19282;BMP180;9774;52.034;5.342;2023-04-15T09:53:28;101273.00;;;18.60
19282;BMP180;9774;52.034;5.342;2023-04-15T09:55:56;101281.00;;;18.60
19282;BMP180;9774;52.034;5.342;2023-04-15T09:58:28;101280.00;;;18.60
19282;BMP180;9774;52.034;5.342;2023-04-15T10:00:56;101278.00;;;18.70
19282;BMP180;9774;52.034;5.342;2023-04-15T10:03:25;101282.00;;;18.80
19282;BMP180;9774;52.034;5.342;2023-04-15T10:05:54;101284.00;;;18.80
19282;BMP180;9774;52.034;5.342;2023-04-15T10:08:23;101283.00;;;18.90
19282;BMP180;9774;52.034;5.342;2023-04-15T10:10:52;101294.00;;;18.90
19282;BMP180;9774;52.034;5.342;2023-04-15T10:13:22;101307.00;;;18.90
19282;BMP180;9774;52.034;5.342;2023-04-15T10:15:56;101291.00;;;19.00
19282;BMP180;9774;52.034;5.342;2023-04-15T10:18:25;101298.00;;;19.10
19282;BMP180;9774;52.034;5.342;2023-04-15T10:20:53;101296.00;;;19.10
19282;BMP180;9774;52.034;5.342;2023-04-15T10:23:22;101294.00;;;19.20
19282;BMP180;9774;52.034;5.342;2023-04-15T10:25:52;101292.00;;;19.30
19282;BMP180;9774;52.034;5.342;2023-04-15T10:28:21;101293.00;;;19.40
19282;BMP180;9774;52.034;5.342;2023-04-15T10:30:49;101301.00;;;19.50
19282;BMP180;9774;52.034;5.342;2023-04-15T10:33:20;101308.00;;;19.50
19282;BMP180;9774;52.034;5.342;2023-04-15T10:35:49;101310.00;;;19.50
19282;BMP180;9774;52.034;5.342;2023-04-15T10:38:36;101312.00;;;19.40
19282;BMP180;9774;52.034;5.342;2023-04-15T10:41:14;101310.00;;;19.60
19282;BMP180;9774;52.034;5.342;2023-04-15T10:43:52;101307.00;;;19.60
19282;BMP180;9774;52.034;5.342;2023-04-15T10:46:26;101314.00;;;19.80
19282;BMP180;9774;52.034;5.342;2023-04-15T10:49:07;101312.00;;;19.80
19282;BMP180;9774;52.034;5.342;2023-04-15T10:51:40;101315.00;;;19.90
19282;BMP180;9774;52.034;5.342;2023-04-15T10:54:11;101314.00;;;20.00
19282;BMP180;9774;52.034;5.342;2023-04-15T10:56:41;101327.00;;;20.10
19282;BMP180;9774;52.034;5.342;2023-04-15T10:59:09;101329.00;;;20.20
19282;BMP180;9774;52.034;5.342;2023-04-15T11:01:54;101331.00;;;20.20
19282;BMP180;9774;52.034;5.342;2023-04-15T11:04:51;101332.00;;;20.30
19282;BMP180;9774;52.034;5.342;2023-04-15T11:07:39;101331.00;;;20.40
19282;BMP180;9774;52.034;5.342;2023-04-15T11:13:22;101337.00;;;20.70
19282;BMP180;9774;52.034;5.342;2023-04-15T11:15:52;101341.00;;;20.90
19282;BMP180;9774;52.034;5.342;2023-04-15T11:18:24;101337.00;;;21.00
19282;BMP180;9774;52.034;5.342;2023-04-15T11:20:56;101347.00;;;21.10
19282;BMP180;9774;52.034;5.342;2023-04-15T11:23:29;101333.00;;;21.10
19282;BMP180;9774;52.034;5.342;2023-04-15T11:25:57;101339.00;;;21.20
19282;BMP180;9774;52.034;5.342;2023-04-15T11:28:26;101348.00;;;21.20
19282;BMP180;9774;52.034;5.342;2023-04-15T11:31:08;101349.00;;;21.20
19282;BMP180;9774;52.034;5.342;2023-04-15T11:33:37;101359.00;;;21.30
19282;BMP180;9774;52.034;5.342;2023-04-15T11:36:05;101356.00;;;21.20
19282;BMP180;9774;52.034;5.342;2023-04-15T11:38:33;101360.00;;;21.20
19282;BMP180;9774;52.034;5.342;2023-04-15T11:41:03;101355.00;;;21.30
19282;BMP180;9774;52.034;5.342;2023-04-15T11:43:31;101355.00;;;21.20
19282;BMP180;9774;52.034;5.342;2023-04-15T11:46:01;101366.00;;;21.20
19282;BMP180;9774;52.034;5.342;2023-04-15T11:48:32;101363.00;;;21.20
19282;BMP180;9774;52.034;5.342;2023-04-15T11:51:00;101371.00;;;21.20
19282;BMP180;9774;52.034;5.342;2023-04-15T11:53:36;101385.00;;;21.10
19282;BMP180;9774;52.034;5.342;2023-04-15T11:56:05;101383.00;;;21.20
19282;BMP180;9774;52.034;5.342;2023-04-15T11:58:35;101382.00;;;21.10
19282;BMP180;9774;52.034;5.342;2023-04-15T12:01:04;101380.00;;;21.10
19282;BMP180;9774;52.034;5.342;2023-04-15T12:03:37;101381.00;;;21.00
19282;BMP180;9774;52.034;5.342;2023-04-15T12:06:15;101387.00;;;20.90
19282;BMP180;9774;52.034;5.342;2023-04-15T12:08:59;101393.00;;;20.80
19282;BMP180;9774;52.034;5.342;2023-04-15T12:11:31;101393.00;;;20.80
19282;BMP180;9774;52.034;5.342;2023-04-15T12:14:03;101392.00;;;20.80
19282;BMP180;9774;52.034;5.342;2023-04-15T12:16:32;101405.00;;;20.80
19282;BMP180;9774;52.034;5.342;2023-04-15T12:19:04;101404.00;;;20.80
19282;BMP180;9774;52.034;5.342;2023-04-15T12:21:37;101404.00;;;20.80
19282;BMP180;9774;52.034;5.342;2023-04-15T12:24:06;101421.00;;;20.80
19282;BMP180;9774;52.034;5.342;2023-04-15T12:26:35;101421.00;;;20.80
19282;BMP180;9774;52.034;5.342;2023-04-15T12:29:04;101423.00;;;20.80
19282;BMP180;9774;52.034;5.342;2023-04-15T12:31:34;101420.00;;;20.70
19282;BMP180;9774;52.034;5.342;2023-04-15T12:34:07;101421.00;;;20.80
19282;BMP180;9774;52.034;5.342;2023-04-15T12:36:34;101436.00;;;20.90
19282;BMP180;9774;52.034;5.342;2023-04-15T12:39:03;101431.00;;;20.90
19282;BMP180;9774;52.034;5.342;2023-04-15T12:41:31;101448.00;;;20.90
19282;BMP180;9774;52.034;5.342;2023-04-15T12:43:58;101440.00;;;20.90
19282;BMP180;9774;52.034;5.342;2023-04-15T12:46:26;101443.00;;;20.90
19282;BMP180;9774;52.034;5.342;2023-04-15T12:48:54;101442.00;;;20.90
19282;BMP180;9774;52.034;5.342;2023-04-15T12:51:23;101459.00;;;20.90
19282;BMP180;9774;52.034;5.342;2023-04-15T12:53:52;101455.00;;;20.90
19282;BMP180;9774;52.034;5.342;2023-04-15T12:56:19;101456.00;;;20.90
19282;BMP180;9774;52.034;5.342;2023-04-15T12:58:47;101465.00;;;21.00
19282;BMP180;9774;52.034;5.342;2023-04-15T13:01:14;101462.00;;;21.00
19282;BMP180;9774;52.034;5.342;2023-04-15T13:03:42;101477.00;;;21.00
19282;BMP180;9774;52.034;5.342;2023-04-15T13:06:09;101463.00;;;21.00
19282;BMP180;9774;52.034;5.342;2023-04-15T13:08:38;101488.00;;;21.00
19282;BMP180;9774;52.034;5.342;2023-04-15T13:11:05;101476.00;;;20.90
19282;BMP180;9774;52.034;5.342;2023-04-15T13:13:34;101480.00;;;20.90
19282;BMP180;9774;52.034;5.342;2023-04-15T13:16:01;101491.00;;;20.80
19282;BMP180;9774;52.034;5.342;2023-04-15T13:18:28;101487.00;;;20.80
19282;BMP180;9774;52.034;5.342;2023-04-15T13:20:56;101496.00;;;20.80
19282;BMP180;9774;52.034;5.342;2023-04-15T13:23:24;101489.00;;;20.70
19282;BMP180;9774;52.034;5.342;2023-04-15T13:25:52;101490.00;;;20.70
19282;BMP180;9774;52.034;5.342;2023-04-15T13:28:20;101495.00;;;20.80
19282;BMP180;9774;52.034;5.342;2023-04-15T13:30:48;101496.00;;;21.00
19282;BMP180;9774;52.034;5.342;2023-04-15T13:33:16;101501.00;;;21.20
19282;BMP180;9774;52.034;5.342;2023-04-15T13:35:43;101505.00;;;21.40
19282;BMP180;9774;52.034;5.342;2023-04-15T13:38:11;101504.00;;;21.50
19282;BMP180;9774;52.034;5.342;2023-04-15T13:40:38;101503.00;;;21.50
19282;BMP180;9774;52.034;5.342;2023-04-15T13:43:07;101521.00;;;21.50
19282;BMP180;9774;52.034;5.342;2023-04-15T13:45:34;101520.00;;;21.40
19282;BMP180;9774;52.034;5.342;2023-04-15T13:48:02;101515.00;;;21.40
19282;BMP180;9774;52.034;5.342;2023-04-15T13:50:29;101521.00;;;21.60
19282;BMP180;9774;52.034;5.342;2023-04-15T13:52:56;101521.00;;;21.80
19282;BMP180;9774;52.034;5.342;2023-04-15T13:55:24;101536.00;;;21.70
19282;BMP180;9774;52.034;5.342;2023-04-15T13:57:51;101533.00;;;21.60
19282;BMP180;9774;52.034;5.342;2023-04-15T14:00:20;101543.00;;;21.90
19282;BMP180;9774;52.034;5.342;2023-04-15T14:02:47;101533.00;;;22.30
19282;BMP180;9774;52.034;5.342;2023-04-15T14:05:15;101536.00;;;22.50
19282;BMP180;9774;52.034;5.342;2023-04-15T14:07:42;101537.00;;;22.50
19282;BMP180;9774;52.034;5.342;2023-04-15T14:10:09;101546.00;;;22.60
19282;BMP180;9774;52.034;5.342;2023-04-15T14:12:37;101549.00;;;22.50
19282;BMP180;9774;52.034;5.342;2023-04-15T14:15:05;101553.00;;;22.30
19282;BMP180;9774;52.034;5.342;2023-04-15T14:17:34;101564.00;;;22.10
19282;BMP180;9774;52.034;5.342;2023-04-15T14:20:01;101573.00;;;21.90